sensor_id;sensor_type;location;lat;lon;timestamp;temperature;humidity
4356;DHT22;64374;51.482;7.408;2023-01-31T00:00:04;7.10;99.90
4356;DHT22;64374;51.482;7.408;2023-01-31T00:02:35;7.00;99.90
4356;DHT22;64374;51.482;7.408;2023-01-31T00:05:07;7.20;99.90
4356;DHT22;64374;51.482;7.408;2023-01-31T00:07:35;7.10;99.90
4356;DHT22;64374;51.482;7.408;2023-01-31T00:10:04;7.10;99.90
4356;DHT22;64374;51.482;7.408;2023-01-31T00:12:33;6.90;99.90
4356;DHT22;64374;51.482;7.408;2023-01-31T00:15:02;7.00;99.90
4356;DHT22;64374;51.482;7.408;2023-01-31T00:17:30;7.10;99.90
4356;DHT22;64374;51.482;7.408;2023-01-31T00:19:58;7.10;99.90
4356;DHT22;64374;51.482;7.408;2023-01-31T00:22:28;7.20;99.90
4356;DHT22;64374;51.482;7.408;2023-01-31T00:24:58;7.20;99.90
4356;DHT22;64374;51.482;7.408;2023-01-31T00:27:26;7.20;99.90
4356;DHT22;64374;51.482;7.408;2023-01-31T00:29:54;7.10;99.90
4356;DHT22;64374;51.482;7.408;2023-01-31T00:32:23;7.00;99.90
4356;DHT22;64374;51.482;7.408;2023-01-31T00:34:55;6.80;99.90
4356;DHT22;64374;51.482;7.408;2023-01-31T00:37:23;6.80;99.90
4356;DHT22;64374;51.482;7.408;2023-01-31T00:39:52;6.80;99.90
4356;DHT22;64374;51.482;7.408;2023-01-31T00:42:21;7.00;99.90
4356;DHT22;64374;51.482;7.408;2023-01-31T00:44:52;6.80;99.90
4356;DHT22;64374;51.482;7.408;2023-01-31T00:47:23;6.90;99.90
4356;DHT22;64374;51.482;7.408;2023-01-31T00:49:52;6.80;99.90
4356;DHT22;64374;51.482;7.408;2023-01-31T00:52:20;6.50;99.90
4356;DHT22;64374;51.482;7.408;2023-01-31T00:54:49;6.60;99.90
4356;DHT22;64374;51.482;7.408;2023-01-31T00:57:18;6.80;99.90
4356;DHT22;64374;51.482;7.408;2023-01-31T00:59:47;6.90;99.90
4356;DHT22;64374;51.482;7.408;2023-01-31T01:02:16;7.10;99.90
4356;DHT22;64374;51.482;7.408;2023-01-31T01:04:51;7.10;99.90
4356;DHT22;64374;51.482;7.408;2023-01-31T01:07:20;6.90;99.90
4356;DHT22;64374;51.482;7.408;2023-01-31T01:09:51;6.80;99.90
4356;DHT22;64374;51.482;7.408;2023-01-31T01:12:21;6.60;99.90
4356;DHT22;64374;51.482;7.408;2023-01-31T01:14:50;6.60;99.90
4356;DHT22;64374;51.482;7.408;2023-01-31T01:17:20;6.60;99.90
4356;DHT22;64374;51.482;7.408;2023-01-31T01:19:48;6.70;99.90
4356;DHT22;64374;51.482;7.408;2023-01-31T01:22:17;6.50;99.90
4356;DHT22;64374;51.482;7.408;2023-01-31T01:24:45;6.70;99.90
4356;DHT22;64374;51.482;7.408;2023-01-31T01:27:14;6.80;99.90
4356;DHT22;64374;51.482;7.408;2023-01-31T01:29:45;6.70;99.90
4356;DHT22;64374;51.482;7.408;2023-01-31T01:32:13;6.80;99.90
4356;DHT22;64374;51.482;7.408;2023-01-31T01:34:42;6.70;99.90
4356;DHT22;64374;51.482;7.408;2023-01-31T01:37:12;6.80;99.90
4356;DHT22;64374;51.482;7.408;2023-01-31T01:39:46;6.70;99.90
4356;DHT22;64374;51.482;7.408;2023-01-31T01:42:16;6.40;99.90
4356;DHT22;64374;51.482;7.408;2023-01-31T01:44:50;6.70;99.90
4356;DHT22;64374;51.482;7.408;2023-01-31T01:47:26;6.80;99.90
4356;DHT22;64374;51.482;7.408;2023-01-31T01:49:59;6.70;99.90
4356;DHT22;64374;51.482;7.408;2023-01-31T01:52:29;6.60;99.90
4356;DHT22;64374;51.482;7.408;2023-01-31T01:55:00;6.50;99.90
4356;DHT22;64374;51.482;7.408;2023-01-31T01:57:36;6.50;99.90
4356;DHT22;64374;51.482;7.408;2023-01-31T02:00:14;6.60;99.90
4356;DHT22;64374;51.482;7.408;2023-01-31T02:02:44;6.60;99.90
4356;DHT22;64374;51.482;7.408;2023-01-31T02:05:16;6.50;99.90
4356;DHT22;64374;51.482;7.408;2023-01-31T02:07:47;6.50;99.90
4356;DHT22;64374;51.482;7.408;2023-01-31T02:10:21;6.20;99.90
4356;DHT22;64374;51.482;7.408;2023-01-31T02:12:51;6.40;99.90
4356;DHT22;64374;51.482;7.408;2023-01-31T02:15:21;6.40;99.90
4356;DHT22;64374;51.482;7.408;2023-01-31T02:17:52;6.40;99.90
4356;DHT22;64374;51.482;7.408;2023-01-31T02:20:47;6.30;99.90
4356;DHT22;64374;51.482;7.408;2023-01-31T02:23:35;6.20;99.90
4356;DHT22;64374;51.482;7.408;2023-01-31T02:26:36;6.30;99.90
4356;DHT22;64374;51.482;7.408;2023-01-31T02:29:33;6.30;99.90
4356;DHT22;64374;51.482;7.408;2023-01-31T02:35:09;6.40;99.90
4356;DHT22;64374;51.482;7.408;2023-01-31T02:37:43;6.20;99.90
4356;DHT22;64374;51.482;7.408;2023-01-31T02:40:21;6.30;99.90
4356;DHT22;64374;51.482;7.408;2023-01-31T02:42:58;6.40;99.90
4356;DHT22;64374;51.482;7.408;2023-01-31T02:45:36;6.60;99.90
4356;DHT22;64374;51.482;7.408;2023-01-31T02:48:17;6.80;99.90
4356;DHT22;64374;51.482;7.408;2023-01-31T02:50:58;6.90;99.90
4356;DHT22;64374;51.482;7.408;2023-01-31T02:53:32;6.90;99.90
4356;DHT22;64374;51.482;7.408;2023-01-31T02:56:07;6.70;99.90
4356;DHT22;64374;51.482;7.408;2023-01-31T02:58:50;6.60;99.90
4356;DHT22;64374;51.482;7.408;2023-01-31T03:01:25;6.40;99.90
4356;DHT22;64374;51.482;7.408;2023-01-31T03:04:03;6.30;99.90
4356;DHT22;64374;51.482;7.408;2023-01-31T03:06:54;6.40;99.90
4356;DHT22;64374;51.482;7.408;2023-01-31T03:09:36;6.70;99.90
4356;DHT22;64374;51.482;7.408;2023-01-31T03:15:15;6.60;99.90
4356;DHT22;64374;51.482;7.408;2023-01-31T03:17:56;6.50;99.90
4356;DHT22;64374;51.482;7.408;2023-01-31T03:20:32;6.60;99.90
4356;DHT22;64374;51.482;7.408;2023-01-31T03:23:05;6.50;99.90
4356;DHT22;64374;51.482;7.408;2023-01-31T03:25:37;6.40;99.90
4356;DHT22;64374;51.482;7.408;2023-01-31T03:28:11;6.50;99.90
4356;DHT22;64374;51.482;7.408;2023-01-31T03:30:44;6.50;99.90
4356;DHT22;64374;51.482;7.408;2023-01-31T03:33:20;6.60;99.90
4356;DHT22;64374;51.482;7.408;2023-01-31T03:35:56;6.80;99.90
4356;DHT22;64374;51.482;7.408;2023-01-31T03:38:33;6.80;99.90
4356;DHT22;64374;51.482;7.408;2023-01-31T03:41:07;6.80;99.90
4356;DHT22;64374;51.482;7.408;2023-01-31T03:43:43;6.90;99.90
4356;DHT22;64374;51.482;7.408;2023-01-31T03:46:16;7.00;99.90
4356;DHT22;64374;51.482;7.408;2023-01-31T03:48:52;6.90;99.90
4356;DHT22;64374;51.482;7.408;2023-01-31T03:51:26;6.80;99.90
4356;DHT22;64374;51.482;7.408;2023-01-31T03:54:00;6.70;99.90
4356;DHT22;64374;51.482;7.408;2023-01-31T03:56:35;6.70;99.90
4356;DHT22;64374;51.482;7.408;2023-01-31T03:59:08;6.60;99.90
4356;DHT22;64374;51.482;7.408;2023-01-31T04:01:43;6.90;99.90
4356;DHT22;64374;51.482;7.408;2023-01-31T04:04:18;7.00;99.90
4356;DHT22;64374;51.482;7.408;2023-01-31T04:06:50;7.20;99.90
4356;DHT22;64374;51.482;7.408;2023-01-31T04:09:20;7.00;99.90
4356;DHT22;64374;51.482;7.408;2023-01-31T04:11:49;7.20;99.90
4356;DHT22;64374;51.482;7.408;2023-01-31T04:14:19;6.90;99.90
4356;DHT22;64374;51.482;7.408;2023-01-31T04:16:47;6.60;99.90
4356;DHT22;64374;51.482;7.408;2023-01-31T04:19:16;6.60;99.90
4356;DHT22;64374;51.482;7.408;2023-01-31T04:21:44;6.40;99.90
4356;DHT22;64374;51.482;7.408;2023-01-31T04:24:14;6.60;99.90
4356;DHT22;64374;51.482;7.408;2023-01-31T04:26:42;6.50;99.90
4356;DHT22;64374;51.482;7.408;2023-01-31T04:29:11;6.30;99.90
4356;DHT22;64374;51.482;7.408;2023-01-31T04:31:40;6.40;99.90
4356;DHT22;64374;51.482;7.408;2023-01-31T04:34:09;6.60;99.90
4356;DHT22;64374;51.482;7.408;2023-01-31T04:36:38;6.90;99.90
4356;DHT22;64374;51.482;7.408;2023-01-31T04:39:08;7.00;99.90
4356;DHT22;64374;51.482;7.408;2023-01-31T04:41:39;6.90;99.90
4356;DHT22;64374;51.482;7.408;2023-01-31T04:44:07;6.80;99.90
4356;DHT22;64374;51.482;7.408;2023-01-31T04:46:36;6.80;99.90
4356;DHT22;64374;51.482;7.408;2023-01-31T04:49:04;6.90;99.90
4356;DHT22;64374;51.482;7.408;2023-01-31T04:51:34;6.80;99.90
4356;DHT22;64374;51.482;7.408;2023-01-31T04:54:03;6.80;99.90
4356;DHT22;64374;51.482;7.408;2023-01-31T04:56:32;6.60;99.90
4356;DHT22;64374;51.482;7.408;2023-01-31T04:59:03;6.50;99.90
4356;DHT22;64374;51.482;7.408;2023-01-31T05:01:32;6.30;99.90
4356;DHT22;64374;51.482;7.408;2023-01-31T05:04:02;6.60;99.90
4356;DHT22;64374;51.482;7.408;2023-01-31T05:06:30;6.50;99.90
4356;DHT22;64374;51.482;7.408;2023-01-31T05:08:59;6.60;99.90
4356;DHT22;64374;51.482;7.408;2023-01-31T05:11:28;6.30;99.90
4356;DHT22;64374;51.482;7.408;2023-01-31T05:13:57;6.40;99.90
4356;DHT22;64374;51.482;7.408;2023-01-31T05:16:28;6.40;99.90
4356;DHT22;64374;51.482;7.408;2023-01-31T05:18:56;6.60;99.90
4356;DHT22;64374;51.482;7.408;2023-01-31T05:21:25;6.40;99.90
4356;DHT22;64374;51.482;7.408;2023-01-31T05:23:54;6.40;99.90
4356;DHT22;64374;51.482;7.408;2023-01-31T05:26:24;6.60;99.90
4356;DHT22;64374;51.482;7.408;2023-01-31T05:28:54;6.60;99.90
4356;DHT22;64374;51.482;7.408;2023-01-31T05:31:23;6.60;99.90
4356;DHT22;64374;51.482;7.408;2023-01-31T05:33:53;6.60;99.90
4356;DHT22;64374;51.482;7.408;2023-01-31T05:36:21;6.40;99.90
4356;DHT22;64374;51.482;7.408;2023-01-31T05:38:49;6.50;99.90
4356;DHT22;64374;51.482;7.408;2023-01-31T05:41:18;6.40;99.90
4356;DHT22;64374;51.482;7.408;2023-01-31T05:43:46;6.20;99.90
4356;DHT22;64374;51.482;7.408;2023-01-31T05:46:15;6.20;99.90
4356;DHT22;64374;51.482;7.408;2023-01-31T05:48:43;6.20;99.90
4356;DHT22;64374;51.482;7.408;2023-01-31T05:51:13;6.20;99.90
4356;DHT22;64374;51.482;7.408;2023-01-31T05:53:41;6.20;99.90
4356;DHT22;64374;51.482;7.408;2023-01-31T05:56:12;6.10;99.90
4356;DHT22;64374;51.482;7.408;2023-01-31T05:58:40;6.00;99.90
4356;DHT22;64374;51.482;7.408;2023-01-31T06:01:08;6.00;99.90
4356;DHT22;64374;51.482;7.408;2023-01-31T06:03:39;6.20;99.90
4356;DHT22;64374;51.482;7.408;2023-01-31T06:06:08;6.10;99.90
4356;DHT22;64374;51.482;7.408;2023-01-31T06:08:39;6.30;99.90
4356;DHT22;64374;51.482;7.408;2023-01-31T06:11:09;6.20;99.90
4356;DHT22;64374;51.482;7.408;2023-01-31T06:13:38;6.20;99.90
4356;DHT22;64374;51.482;7.408;2023-01-31T06:16:09;6.20;99.90
4356;DHT22;64374;51.482;7.408;2023-01-31T06:18:37;6.20;99.90
4356;DHT22;64374;51.482;7.408;2023-01-31T06:21:06;6.20;99.90
4356;DHT22;64374;51.482;7.408;2023-01-31T06:23:34;6.00;99.90
4356;DHT22;64374;51.482;7.408;2023-01-31T06:26:03;6.10;99.90
4356;DHT22;64374;51.482;7.408;2023-01-31T06:28:32;6.40;99.90
4356;DHT22;64374;51.482;7.408;2023-01-31T06:31:05;6.20;99.90
4356;DHT22;64374;51.482;7.408;2023-01-31T06:33:33;6.20;99.90
4356;DHT22;64374;51.482;7.408;2023-01-31T06:36:12;6.30;99.90
4356;DHT22;64374;51.482;7.408;2023-01-31T06:38:48;6.30;99.90
4356;DHT22;64374;51.482;7.408;2023-01-31T06:41:17;6.20;99.90
4356;DHT22;64374;51.482;7.408;2023-01-31T06:43:45;6.30;99.90
4356;DHT22;64374;51.482;7.408;2023-01-31T06:46:14;6.30;99.90
4356;DHT22;64374;51.482;7.408;2023-01-31T06:48:42;6.40;99.90
4356;DHT22;64374;51.482;7.408;2023-01-31T06:51:10;6.50;99.90
4356;DHT22;64374;51.482;7.408;2023-01-31T06:53:38;6.40;99.90
4356;DHT22;64374;51.482;7.408;2023-01-31T06:56:07;6.40;99.90
4356;DHT22;64374;51.482;7.408;2023-01-31T06:58:39;6.20;99.90
4356;DHT22;64374;51.482;7.408;2023-01-31T07:01:09;6.20;99.90
4356;DHT22;64374;51.482;7.408;2023-01-31T07:03:37;6.20;99.90
4356;DHT22;64374;51.482;7.408;2023-01-31T07:06:07;6.10;99.90
4356;DHT22;64374;51.482;7.408;2023-01-31T07:08:35;6.50;99.90
4356;DHT22;64374;51.482;7.408;2023-01-31T07:11:06;6.40;99.90
4356;DHT22;64374;51.482;7.408;2023-01-31T07:13:35;6.30;99.90
4356;DHT22;64374;51.482;7.408;2023-01-31T07:16:04;6.40;99.90
4356;DHT22;64374;51.482;7.408;2023-01-31T07:18:32;6.40;99.90
4356;DHT22;64374;51.482;7.408;2023-01-31T07:21:00;6.50;99.90
4356;DHT22;64374;51.482;7.408;2023-01-31T07:23:28;6.30;99.90
4356;DHT22;64374;51.482;7.408;2023-01-31T07:25:57;6.20;99.90
4356;DHT22;64374;51.482;7.408;2023-01-31T07:28:27;6.30;99.90
4356;DHT22;64374;51.482;7.408;2023-01-31T07:31:02;6.40;99.90
4356;DHT22;64374;51.482;7.408;2023-01-31T07:33:31;6.30;99.90
4356;DHT22;64374;51.482;7.408;2023-01-31T07:36:01;6.20;99.90
4356;DHT22;64374;51.482;7.408;2023-01-31T07:38:30;6.10;99.90
4356;DHT22;64374;51.482;7.408;2023-01-31T07:40:59;6.10;99.90
4356;DHT22;64374;51.482;7.408;2023-01-31T07:43:27;6.10;99.90
4356;DHT22;64374;51.482;7.408;2023-01-31T07:45:57;6.10;99.90
4356;DHT22;64374;51.482;7.408;2023-01-31T07:48:26;6.00;99.90
4356;DHT22;64374;51.482;7.408;2023-01-31T07:50:58;5.90;99.90
4356;DHT22;64374;51.482;7.408;2023-01-31T07:53:27;6.20;99.90
4356;DHT22;64374;51.482;7.408;2023-01-31T07:56:05;6.30;99.90
4356;DHT22;64374;51.482;7.408;2023-01-31T07:58:34;6.40;99.90
4356;DHT22;64374;51.482;7.408;2023-01-31T08:01:04;6.40;99.90
4356;DHT22;64374;51.482;7.408;2023-01-31T08:03:50;6.30;99.90
4356;DHT22;64374;51.482;7.408;2023-01-31T08:06:19;6.20;99.90
4356;DHT22;64374;51.482;7.408;2023-01-31T08:08:47;6.30;99.90
4356;DHT22;64374;51.482;7.408;2023-01-31T08:11:15;6.30;99.90
4356;DHT22;64374;51.482;7.408;2023-01-31T08:13:43;6.30;99.90
4356;DHT22;64374;51.482;7.408;2023-01-31T08:16:13;6.20;99.90
4356;DHT22;64374;51.482;7.408;2023-01-31T08:18:43;6.20;99.90
4356;DHT22;64374;51.482;7.408;2023-01-31T08:21:13;6.00;99.90
4356;DHT22;64374;51.482;7.408;2023-01-31T08:23:41;5.90;99.90
4356;DHT22;64374;51.482;7.408;2023-01-31T08:26:12;6.00;99.90
4356;DHT22;64374;51.482;7.408;2023-01-31T08:28:44;6.20;99.90
4356;DHT22;64374;51.482;7.408;2023-01-31T08:31:16;6.40;99.90
4356;DHT22;64374;51.482;7.408;2023-01-31T08:33:45;6.40;99.90
4356;DHT22;64374;51.482;7.408;2023-01-31T08:36:16;6.50;99.90
4356;DHT22;64374;51.482;7.408;2023-01-31T08:38:44;6.50;99.90
4356;DHT22;64374;51.482;7.408;2023-01-31T08:41:13;6.40;99.90
4356;DHT22;64374;51.482;7.408;2023-01-31T08:43:42;6.40;99.90
4356;DHT22;64374;51.482;7.408;2023-01-31T08:46:30;6.50;99.90
4356;DHT22;64374;51.482;7.408;2023-01-31T08:48:58;6.50;99.90
4356;DHT22;64374;51.482;7.408;2023-01-31T08:51:27;6.70;99.90
4356;DHT22;64374;51.482;7.408;2023-01-31T08:53:56;6.60;99.90
4356;DHT22;64374;51.482;7.408;2023-01-31T08:56:24;6.50;99.90
4356;DHT22;64374;51.482;7.408;2023-01-31T08:58:54;6.30;99.90
4356;DHT22;64374;51.482;7.408;2023-01-31T09:01:22;6.30;99.90
4356;DHT22;64374;51.482;7.408;2023-01-31T09:03:51;5.90;99.90
4356;DHT22;64374;51.482;7.408;2023-01-31T09:06:24;5.90;99.90
4356;DHT22;64374;51.482;7.408;2023-01-31T09:08:54;5.90;99.90
4356;DHT22;64374;51.482;7.408;2023-01-31T09:11:23;5.80;99.90
4356;DHT22;64374;51.482;7.408;2023-01-31T09:13:55;5.90;99.90
4356;DHT22;64374;51.482;7.408;2023-01-31T09:16:24;6.00;99.90
4356;DHT22;64374;51.482;7.408;2023-01-31T09:18:57;6.00;99.90
4356;DHT22;64374;51.482;7.408;2023-01-31T09:21:26;6.00;99.90
4356;DHT22;64374;51.482;7.408;2023-01-31T09:23:55;6.00;99.90
4356;DHT22;64374;51.482;7.408;2023-01-31T09:26:25;6.20;99.90
4356;DHT22;64374;51.482;7.408;2023-01-31T09:28:54;6.20;99.90
4356;DHT22;64374;51.482;7.408;2023-01-31T09:31:23;6.00;99.90
4356;DHT22;64374;51.482;7.408;2023-01-31T09:33:54;6.20;99.90
4356;DHT22;64374;51.482;7.408;2023-01-31T09:36:23;6.20;99.90
4356;DHT22;64374;51.482;7.408;2023-01-31T09:38:55;6.30;99.90
4356;DHT22;64374;51.482;7.408;2023-01-31T09:41:28;6.10;99.90
4356;DHT22;64374;51.482;7.408;2023-01-31T09:44:00;6.10;99.90
4356;DHT22;64374;51.482;7.408;2023-01-31T09:46:34;6.10;99.90
4356;DHT22;64374;51.482;7.408;2023-01-31T09:49:06;6.20;99.90
4356;DHT22;64374;51.482;7.408;2023-01-31T09:51:39;6.10;99.90
4356;DHT22;64374;51.482;7.408;2023-01-31T09:54:16;6.00;99.90
4356;DHT22;64374;51.482;7.408;2023-01-31T09:56:53;5.90;99.90
4356;DHT22;64374;51.482;7.408;2023-01-31T09:59:28;5.90;99.90
4356;DHT22;64374;51.482;7.408;2023-01-31T10:02:03;5.90;99.90
4356;DHT22;64374;51.482;7.408;2023-01-31T10:04:48;6.00;99.90
4356;DHT22;64374;51.482;7.408;2023-01-31T10:07:27;6.00;99.90
4356;DHT22;64374;51.482;7.408;2023-01-31T10:10:02;6.20;99.90
4356;DHT22;64374;51.482;7.408;2023-01-31T10:12:39;6.10;99.90
4356;DHT22;64374;51.482;7.408;2023-01-31T10:15:35;6.30;99.90
4356;DHT22;64374;51.482;7.408;2023-01-31T10:18:09;6.50;99.90
4356;DHT22;64374;51.482;7.408;2023-01-31T10:20:43;6.40;99.90
4356;DHT22;64374;51.482;7.408;2023-01-31T10:23:20;6.50;99.90
4356;DHT22;64374;51.482;7.408;2023-01-31T10:25:54;6.40;99.90
4356;DHT22;64374;51.482;7.408;2023-01-31T10:28:29;6.40;99.90
4356;DHT22;64374;51.482;7.408;2023-01-31T10:31:03;6.30;99.90
4356;DHT22;64374;51.482;7.408;2023-01-31T10:33:39;6.40;99.90
4356;DHT22;64374;51.482;7.408;2023-01-31T10:36:15;6.40;99.90
4356;DHT22;64374;51.482;7.408;2023-01-31T10:38:57;6.60;99.90
4356;DHT22;64374;51.482;7.408;2023-01-31T10:41:37;6.50;99.90
4356;DHT22;64374;51.482;7.408;2023-01-31T10:44:16;6.40;99.90
4356;DHT22;64374;51.482;7.408;2023-01-31T10:46:47;6.40;99.90
4356;DHT22;64374;51.482;7.408;2023-01-31T10:49:16;6.50;99.90
4356;DHT22;64374;51.482;7.408;2023-01-31T10:51:54;6.50;99.90
4356;DHT22;64374;51.482;7.408;2023-01-31T10:54:41;6.20;99.90
4356;DHT22;64374;51.482;7.408;2023-01-31T10:57:14;6.30;99.90
4356;DHT22;64374;51.482;7.408;2023-01-31T10:59:45;6.20;99.90
4356;DHT22;64374;51.482;7.408;2023-01-31T11:02:18;6.40;99.90
4356;DHT22;64374;51.482;7.408;2023-01-31T11:04:50;6.40;99.90
4356;DHT22;64374;51.482;7.408;2023-01-31T11:07:21;6.30;99.90
4356;DHT22;64374;51.482;7.408;2023-01-31T11:09:52;6.50;99.90
4356;DHT22;64374;51.482;7.408;2023-01-31T11:12:40;6.40;99.90
4356;DHT22;64374;51.482;7.408;2023-01-31T11:15:15;6.40;99.90
4356;DHT22;64374;51.482;7.408;2023-01-31T11:17:45;6.50;99.90
4356;DHT22;64374;51.482;7.408;2023-01-31T11:20:24;6.30;99.90
4356;DHT22;64374;51.482;7.408;2023-01-31T11:22:53;6.50;99.90
4356;DHT22;64374;51.482;7.408;2023-01-31T11:25:25;6.40;99.90
4356;DHT22;64374;51.482;7.408;2023-01-31T11:27:58;6.60;99.90
4356;DHT22;64374;51.482;7.408;2023-01-31T11:30:32;6.70;99.90
4356;DHT22;64374;51.482;7.408;2023-01-31T11:33:02;6.40;99.90
4356;DHT22;64374;51.482;7.408;2023-01-31T11:35:31;6.50;99.90
4356;DHT22;64374;51.482;7.408;2023-01-31T11:38:02;6.60;99.90
4356;DHT22;64374;51.482;7.408;2023-01-31T11:40:36;6.60;99.90
4356;DHT22;64374;51.482;7.408;2023-01-31T11:43:20;6.60;99.90
4356;DHT22;64374;51.482;7.408;2023-01-31T11:45:55;6.70;99.90
4356;DHT22;64374;51.482;7.408;2023-01-31T11:48:25;6.80;99.90
4356;DHT22;64374;51.482;7.408;2023-01-31T11:50:55;6.80;99.90
4356;DHT22;64374;51.482;7.408;2023-01-31T11:53:26;6.90;99.90
4356;DHT22;64374;51.482;7.408;2023-01-31T11:56:10;6.80;99.90
4356;DHT22;64374;51.482;7.408;2023-01-31T11:58:42;6.90;99.90
4356;DHT22;64374;51.482;7.408;2023-01-31T12:01:14;7.00;99.90
4356;DHT22;64374;51.482;7.408;2023-01-31T12:03:46;7.00;99.90
4356;DHT22;64374;51.482;7.408;2023-01-31T12:06:31;6.90;99.90
4356;DHT22;64374;51.482;7.408;2023-01-31T12:09:02;6.90;99.90
4356;DHT22;64374;51.482;7.408;2023-01-31T12:11:34;6.80;99.90
4356;DHT22;64374;51.482;7.408;2023-01-31T12:14:13;6.90;99.90
4356;DHT22;64374;51.482;7.408;2023-01-31T12:16:42;6.90;99.90
4356;DHT22;64374;51.482;7.408;2023-01-31T12:19:24;6.70;99.90
4356;DHT22;64374;51.482;7.408;2023-01-31T12:22:02;6.60;99.90
4356;DHT22;64374;51.482;7.408;2023-01-31T12:24:38;6.80;99.90
4356;DHT22;64374;51.482;7.408;2023-01-31T12:27:21;6.70;99.90
4356;DHT22;64374;51.482;7.408;2023-01-31T12:30:14;6.80;99.90
4356;DHT22;64374;51.482;7.408;2023-01-31T12:35:56;6.90;99.90
4356;DHT22;64374;51.482;7.408;2023-01-31T12:38:40;7.00;99.90
4356;DHT22;64374;51.482;7.408;2023-01-31T12:41:23;7.20;99.90
4356;DHT22;64374;51.482;7.408;2023-01-31T12:44:10;7.00;99.90
4356;DHT22;64374;51.482;7.408;2023-01-31T12:46:55;7.10;99.90
4356;DHT22;64374;51.482;7.408;2023-01-31T12:49:59;7.10;99.90
4356;DHT22;64374;51.482;7.408;2023-01-31T12:52:37;7.00;99.90
4356;DHT22;64374;51.482;7.408;2023-01-31T12:55:18;6.80;99.90
4356;DHT22;64374;51.482;7.408;2023-01-31T12:57:55;6.80;99.90
4356;DHT22;64374;51.482;7.408;2023-01-31T13:00:42;6.70;99.90
4356;DHT22;64374;51.482;7.408;2023-01-31T13:03:35;7.00;99.90
4356;DHT22;64374;51.482;7.408;2023-01-31T13:06:07;7.10;99.90
4356;DHT22;64374;51.482;7.408;2023-01-31T13:08:44;7.10;99.90
4356;DHT22;64374;51.482;7.408;2023-01-31T13:11:37;7.00;99.90
4356;DHT22;64374;51.482;7.408;2023-01-31T13:14:11;7.00;99.90
4356;DHT22;64374;51.482;7.408;2023-01-31T13:16:44;7.10;99.90
4356;DHT22;64374;51.482;7.408;2023-01-31T13:19:18;7.30;99.90
4356;DHT22;64374;51.482;7.408;2023-01-31T13:21:50;7.30;99.90
4356;DHT22;64374;51.482;7.408;2023-01-31T13:24:22;7.40;99.90
4356;DHT22;64374;51.482;7.408;2023-01-31T13:26:58;7.20;99.90
4356;DHT22;64374;51.482;7.408;2023-01-31T13:29:31;7.20;99.90
4356;DHT22;64374;51.482;7.408;2023-01-31T13:32:05;7.40;99.90
4356;DHT22;64374;51.482;7.408;2023-01-31T13:34:43;7.20;99.90
4356;DHT22;64374;51.482;7.408;2023-01-31T13:37:19;7.20;99.90
4356;DHT22;64374;51.482;7.408;2023-01-31T13:39:50;7.40;99.90
4356;DHT22;64374;51.482;7.408;2023-01-31T13:42:19;7.20;99.90
4356;DHT22;64374;51.482;7.408;2023-01-31T13:44:48;7.20;99.90
4356;DHT22;64374;51.482;7.408;2023-01-31T13:47:22;7.00;99.90
4356;DHT22;64374;51.482;7.408;2023-01-31T13:49:54;7.00;99.90
4356;DHT22;64374;51.482;7.408;2023-01-31T13:52:27;7.20;99.90
4356;DHT22;64374;51.482;7.408;2023-01-31T13:55:00;7.10;99.90
4356;DHT22;64374;51.482;7.408;2023-01-31T13:57:32;7.00;99.90
4356;DHT22;64374;51.482;7.408;2023-01-31T14:00:06;6.90;99.90
4356;DHT22;64374;51.482;7.408;2023-01-31T14:02:36;6.80;99.90
4356;DHT22;64374;51.482;7.408;2023-01-31T14:05:06;6.90;99.90
4356;DHT22;64374;51.482;7.408;2023-01-31T14:08:26;7.10;99.90
4356;DHT22;64374;51.482;7.408;2023-01-31T14:10:56;7.10;99.90
4356;DHT22;64374;51.482;7.408;2023-01-31T14:13:40;7.00;99.90
4356;DHT22;64374;51.482;7.408;2023-01-31T14:16:36;7.10;99.90
4356;DHT22;64374;51.482;7.408;2023-01-31T14:22:15;7.20;99.90
4356;DHT22;64374;51.482;7.408;2023-01-31T14:25:09;7.20;99.90
4356;DHT22;64374;51.482;7.408;2023-01-31T14:27:42;7.10;99.90
4356;DHT22;64374;51.482;7.408;2023-01-31T14:30:38;7.00;99.90
4356;DHT22;64374;51.482;7.408;2023-01-31T14:33:24;7.20;99.90
4356;DHT22;64374;51.482;7.408;2023-01-31T14:36:31;7.10;99.90
4356;DHT22;64374;51.482;7.408;2023-01-31T14:42:32;7.00;99.90
4356;DHT22;64374;51.482;7.408;2023-01-31T14:45:18;7.20;99.90
4356;DHT22;64374;51.482;7.408;2023-01-31T14:48:12;7.10;99.90
4356;DHT22;64374;51.482;7.408;2023-01-31T14:51:14;7.10;99.90
4356;DHT22;64374;51.482;7.408;2023-01-31T14:54:01;7.20;99.90
4356;DHT22;64374;51.482;7.408;2023-01-31T14:56:50;7.20;99.90
4356;DHT22;64374;51.482;7.408;2023-01-31T14:59:27;7.10;99.90
4356;DHT22;64374;51.482;7.408;2023-01-31T15:01:58;7.10;99.90
4356;DHT22;64374;51.482;7.408;2023-01-31T15:04:27;7.00;99.90
4356;DHT22;64374;51.482;7.408;2023-01-31T15:06:56;7.20;99.90
4356;DHT22;64374;51.482;7.408;2023-01-31T15:09:36;7.30;99.90
4356;DHT22;64374;51.482;7.408;2023-01-31T15:15:24;7.30;99.90
4356;DHT22;64374;51.482;7.408;2023-01-31T15:17:53;7.30;99.90
4356;DHT22;64374;51.482;7.408;2023-01-31T15:20:29;7.30;99.90
4356;DHT22;64374;51.482;7.408;2023-01-31T15:23:03;7.30;99.90
4356;DHT22;64374;51.482;7.408;2023-01-31T15:25:38;7.30;99.90
4356;DHT22;64374;51.482;7.408;2023-01-31T15:28:14;7.40;99.90
4356;DHT22;64374;51.482;7.408;2023-01-31T15:30:45;7.30;99.90
4356;DHT22;64374;51.482;7.408;2023-01-31T15:33:18;7.50;99.90
4356;DHT22;64374;51.482;7.408;2023-01-31T15:35:53;7.50;99.90
4356;DHT22;64374;51.482;7.408;2023-01-31T15:38:27;7.40;99.90
4356;DHT22;64374;51.482;7.408;2023-01-31T15:41:15;7.40;99.90
4356;DHT22;64374;51.482;7.408;2023-01-31T15:43:45;7.40;99.90
4356;DHT22;64374;51.482;7.408;2023-01-31T15:46:20;7.40;99.90
4356;DHT22;64374;51.482;7.408;2023-01-31T15:48:49;7.40;99.90
4356;DHT22;64374;51.482;7.408;2023-01-31T15:51:18;7.40;99.90
4356;DHT22;64374;51.482;7.408;2023-01-31T15:53:48;7.50;99.90
4356;DHT22;64374;51.482;7.408;2023-01-31T15:56:27;7.50;99.90
4356;DHT22;64374;51.482;7.408;2023-01-31T15:58:57;7.40;99.90
4356;DHT22;64374;51.482;7.408;2023-01-31T16:01:28;7.50;99.90
4356;DHT22;64374;51.482;7.408;2023-01-31T16:03:58;7.40;99.90
4356;DHT22;64374;51.482;7.408;2023-01-31T16:06:28;7.50;99.90
4356;DHT22;64374;51.482;7.408;2023-01-31T16:08:59;7.50;99.90
4356;DHT22;64374;51.482;7.408;2023-01-31T16:11:29;7.40;99.90
4356;DHT22;64374;51.482;7.408;2023-01-31T16:14:01;7.30;99.90
4356;DHT22;64374;51.482;7.408;2023-01-31T16:16:33;7.40;99.90
4356;DHT22;64374;51.482;7.408;2023-01-31T16:19:01;7.50;99.90
4356;DHT22;64374;51.482;7.408;2023-01-31T16:21:33;7.40;99.90
4356;DHT22;64374;51.482;7.408;2023-01-31T16:24:12;7.50;99.90
4356;DHT22;64374;51.482;7.408;2023-01-31T16:26:51;7.60;99.90
4356;DHT22;64374;51.482;7.408;2023-01-31T16:29:22;7.60;99.90
4356;DHT22;64374;51.482;7.408;2023-01-31T16:31:54;7.70;99.90
4356;DHT22;64374;51.482;7.408;2023-01-31T16:34:26;7.80;99.90
4356;DHT22;64374;51.482;7.408;2023-01-31T16:36:57;7.90;99.90
4356;DHT22;64374;51.482;7.408;2023-01-31T16:39:34;8.00;99.90
4356;DHT22;64374;51.482;7.408;2023-01-31T16:42:06;8.10;99.90
4356;DHT22;64374;51.482;7.408;2023-01-31T16:44:40;7.90;99.90
4356;DHT22;64374;51.482;7.408;2023-01-31T16:47:33;7.80;99.90
4356;DHT22;64374;51.482;7.408;2023-01-31T16:50:32;7.70;99.90
4356;DHT22;64374;51.482;7.408;2023-01-31T16:53:22;7.80;99.90
4356;DHT22;64374;51.482;7.408;2023-01-31T16:56:14;7.90;99.90
4356;DHT22;64374;51.482;7.408;2023-01-31T16:58:46;7.90;99.90
4356;DHT22;64374;51.482;7.408;2023-01-31T17:01:17;7.90;99.90